sensor_id;sensor_type;location;lat;lon;timestamp;pressure;altitude;pressure_sealevel;temperature;humidity
41106;BME280;74159;52.530;13.188;2024-01-27T00:01:01;102182.72;;;4.87;69.67
41106;BME280;74159;52.530;13.188;2024-01-27T00:03:27;102184.78;;;4.78;70.01
41106;BME280;74159;52.530;13.188;2024-01-27T00:05:52;102191.31;;;4.77;69.53
41106;BME280;74159;52.530;13.188;2024-01-27T00:08:17;102180.16;;;4.85;69.31
41106;BME280;74159;52.530;13.188;2024-01-27T00:10:43;102183.97;;;4.84;69.17
41106;BME280;74159;52.530;13.188;2024-01-27T00:13:11;102184.38;;;4.81;70.22
41106;BME280;74159;52.530;13.188;2024-01-27T00:15:36;102189.66;;;4.82;69.61
41106;BME280;74159;52.530;13.188;2024-01-27T00:18:02;102176.75;;;4.76;69.85
41106;BME280;74159;52.530;13.188;2024-01-27T00:20:27;102170.22;;;4.77;69.64
41106;BME280;74159;52.530;13.188;2024-01-27T00:22:52;102182.25;;;4.76;69.24
41106;BME280;74159;52.530;13.188;2024-01-27T00:25:18;102184.38;;;4.81;69.24
41106;BME280;74159;52.530;13.188;2024-01-27T00:27:43;102179.31;;;4.78;68.82
41106;BME280;74159;52.530;13.188;2024-01-27T00:30:09;102181.81;;;4.73;68.83
41106;BME280;74159;52.530;13.188;2024-01-27T00:32:37;102186.44;;;4.72;68.03
41106;BME280;74159;52.530;13.188;2024-01-27T00:35:02;102188.34;;;4.72;68.62
41106;BME280;74159;52.530;13.188;2024-01-27T00:37:28;102185.19;;;4.75;68.22
41106;BME280;74159;52.530;13.188;2024-01-27T00:39:54;102194.03;;;4.70;68.29
41106;BME280;74159;52.530;13.188;2024-01-27T00:42:19;102183.44;;;4.67;68.08
41106;BME280;74159;52.530;13.188;2024-01-27T00:44:52;102184.34;;;4.74;67.85
41106;BME280;74159;52.530;13.188;2024-01-27T00:47:17;102191.66;;;4.67;68.38
41106;BME280;74159;52.530;13.188;2024-01-27T00:49:43;102202.19;;;4.64;67.88
41106;BME280;74159;52.530;13.188;2024-01-27T00:52:08;102198.41;;;4.65;68.09
41106;BME280;74159;52.530;13.188;2024-01-27T00:54:33;102208.94;;;4.68;67.75
41106;BME280;74159;52.530;13.188;2024-01-27T00:56:59;102205.13;;;4.62;67.78
41106;BME280;74159;52.530;13.188;2024-01-27T00:59:24;102209.56;;;4.63;67.58
41106;BME280;74159;52.530;13.188;2024-01-27T01:01:49;102218.81;;;4.62;67.28
41106;BME280;74159;52.530;13.188;2024-01-27T01:04:15;102221.38;;;4.64;67.17
41106;BME280;74159;52.530;13.188;2024-01-27T01:06:40;102215.88;;;4.64;68.20
41106;BME280;74159;52.530;13.188;2024-01-27T01:09:05;102224.00;;;4.50;68.62
41106;BME280;74159;52.530;13.188;2024-01-27T01:11:31;102232.50;;;4.56;68.11
41106;BME280;74159;52.530;13.188;2024-01-27T01:13:56;102225.16;;;4.63;68.00
41106;BME280;74159;52.530;13.188;2024-01-27T01:16:22;102224.66;;;4.52;68.01
41106;BME280;74159;52.530;13.188;2024-01-27T01:18:47;102237.78;;;4.57;68.20
41106;BME280;74159;52.530;13.188;2024-01-27T01:21:12;102231.38;;;4.50;67.59
41106;BME280;74159;52.530;13.188;2024-01-27T01:23:38;102233.53;;;4.55;67.96
41106;BME280;74159;52.530;13.188;2024-01-27T01:26:03;102224.66;;;4.52;68.14
41106;BME280;74159;52.530;13.188;2024-01-27T01:28:29;102230.31;;;4.51;67.85
41106;BME280;74159;52.530;13.188;2024-01-27T01:30:54;102233.91;;;4.51;68.57
41106;BME280;74159;52.530;13.188;2024-01-27T01:33:19;102242.94;;;4.45;68.16
41106;BME280;74159;52.530;13.188;2024-01-27T01:35:45;102231.84;;;4.53;68.78
41106;BME280;74159;52.530;13.188;2024-01-27T01:38:10;102233.91;;;4.51;68.66
41106;BME280;74159;52.530;13.188;2024-01-27T01:40:36;102230.13;;;4.52;69.05
41106;BME280;74159;52.530;13.188;2024-01-27T01:43:01;102234.31;;;4.48;68.54
41106;BME280;74159;52.530;13.188;2024-01-27T01:45:28;102226.25;;;4.40;69.43
41106;BME280;74159;52.530;13.188;2024-01-27T01:47:54;102231.34;;;4.43;69.60
41106;BME280;74159;52.530;13.188;2024-01-27T01:50:20;102238.50;;;4.44;70.06
41106;BME280;74159;52.530;13.188;2024-01-27T01:52:48;102227.09;;;4.41;70.02
41106;BME280;74159;52.530;13.188;2024-01-27T01:55:13;102226.66;;;4.37;69.82
41106;BME280;74159;52.530;13.188;2024-01-27T01:57:39;102228.78;;;4.42;69.50
41106;BME280;74159;52.530;13.188;2024-01-27T02:00:05;102236.81;;;4.43;70.62
41106;BME280;74159;52.530;13.188;2024-01-27T02:02:31;102238.06;;;4.41;70.67
41106;BME280;74159;52.530;13.188;2024-01-27T02:04:56;102236.78;;;4.37;70.21
41106;BME280;74159;52.530;13.188;2024-01-27T02:07:21;102241.84;;;4.40;71.03
41106;BME280;74159;52.530;13.188;2024-01-27T02:09:47;102240.06;;;4.32;71.33
41106;BME280;74159;52.530;13.188;2024-01-27T02:12:12;102244.31;;;4.35;71.27
41106;BME280;74159;52.530;13.188;2024-01-27T02:14:38;102254.81;;;4.31;70.99
41106;BME280;74159;52.530;13.188;2024-01-27T02:17:03;102258.69;;;4.37;70.79
41106;BME280;74159;52.530;13.188;2024-01-27T02:19:29;102264.53;;;4.34;71.05
41106;BME280;74159;52.530;13.188;2024-01-27T02:21:55;102260.75;;;4.35;70.55
41106;BME280;74159;52.530;13.188;2024-01-27T02:24:20;102257.03;;;4.42;70.65
41106;BME280;74159;52.530;13.188;2024-01-27T02:26:45;102274.06;;;4.38;70.40
41106;BME280;74159;52.530;13.188;2024-01-27T02:29:11;102269.63;;;4.37;70.37
41106;BME280;74159;52.530;13.188;2024-01-27T02:31:36;102284.19;;;4.37;70.40
41106;BME280;74159;52.530;13.188;2024-01-27T02:34:01;102278.50;;;4.39;71.13
41106;BME280;74159;52.530;13.188;2024-01-27T02:36:27;102286.44;;;4.34;70.92
41106;BME280;74159;52.530;13.188;2024-01-27T02:38:52;102289.50;;;4.45;70.48
41106;BME280;74159;52.530;13.188;2024-01-27T02:41:17;102283.78;;;4.40;70.24
41106;BME280;74159;52.530;13.188;2024-01-27T02:43:43;102297.88;;;4.37;71.13
41106;BME280;74159;52.530;13.188;2024-01-27T02:46:11;102295.25;;;4.29;70.42
41106;BME280;74159;52.530;13.188;2024-01-27T02:48:40;102299.44;;;4.25;71.45
41106;BME280;74159;52.530;13.188;2024-01-27T02:51:05;102295.66;;;4.26;70.94
41106;BME280;74159;52.530;13.188;2024-01-27T02:53:30;102299.28;;;4.12;71.71
41106;BME280;74159;52.530;13.188;2024-01-27T02:55:56;102299.34;;;4.18;71.09
41106;BME280;74159;52.530;13.188;2024-01-27T02:58:21;102291.72;;;4.14;71.76
41106;BME280;74159;52.530;13.188;2024-01-27T03:00:47;102305.81;;;4.11;71.47
41106;BME280;74159;52.530;13.188;2024-01-27T03:03:12;102302.16;;;4.04;71.55
41106;BME280;74159;52.530;13.188;2024-01-27T03:05:38;102315.19;;;4.02;71.24
41106;BME280;74159;52.530;13.188;2024-01-27T03:08:04;102304.72;;;4.05;71.27
41106;BME280;74159;52.530;13.188;2024-01-27T03:10:29;102318.69;;;3.96;72.16
41106;BME280;74159;52.530;13.188;2024-01-27T03:12:56;102316.59;;;3.98;71.79
41106;BME280;74159;52.530;13.188;2024-01-27T03:15:21;102322.72;;;4.00;72.20
41106;BME280;74159;52.530;13.188;2024-01-27T03:17:47;102316.34;;;3.92;73.01
41106;BME280;74159;52.530;13.188;2024-01-27T03:20:12;102313.34;;;3.87;72.13
41106;BME280;74159;52.530;13.188;2024-01-27T03:22:37;102312.03;;;3.83;72.29
41106;BME280;74159;52.530;13.188;2024-01-27T03:25:05;102312.41;;;3.80;73.00
41106;BME280;74159;52.530;13.188;2024-01-27T03:27:30;102318.66;;;3.74;72.98
41106;BME280;74159;52.530;13.188;2024-01-27T03:29:59;102319.56;;;3.81;72.79
41106;BME280;74159;52.530;13.188;2024-01-27T03:32:24;102319.06;;;3.71;73.67
41106;BME280;74159;52.530;13.188;2024-01-27T03:34:50;102322.72;;;3.63;73.65
41106;BME280;74159;52.530;13.188;2024-01-27T03:37:15;102310.16;;;3.69;73.68
41106;BME280;74159;52.530;13.188;2024-01-27T03:39:41;102322.81;;;3.70;73.84
41106;BME280;74159;52.530;13.188;2024-01-27T03:42:08;102318.50;;;3.61;74.29
41106;BME280;74159;52.530;13.188;2024-01-27T03:44:33;102330.75;;;3.65;74.03
41106;BME280;74159;52.530;13.188;2024-01-27T03:46:58;102336.59;;;3.62;74.39
41106;BME280;74159;52.530;13.188;2024-01-27T03:49:24;102324.16;;;3.59;74.18
41106;BME280;74159;52.530;13.188;2024-01-27T03:51:49;102326.69;;;3.61;73.89
41106;BME280;74159;52.530;13.188;2024-01-27T03:54:14;102327.28;;;3.56;74.30
41106;BME280;74159;52.530;13.188;2024-01-27T03:56:41;102328.13;;;3.57;74.06
41106;BME280;74159;52.530;13.188;2024-01-27T03:59:06;102335.19;;;3.51;74.50
41106;BME280;74159;52.530;13.188;2024-01-27T04:01:34;102346.13;;;3.51;74.53
41106;BME280;74159;52.530;13.188;2024-01-27T04:04:00;102339.91;;;3.57;74.82
41106;BME280;74159;52.530;13.188;2024-01-27T04:06:25;102338.28;;;3.63;74.90
41106;BME280;74159;52.530;13.188;2024-01-27T04:08:50;102339.53;;;3.60;74.47
41106;BME280;74159;52.530;13.188;2024-01-27T04:11:20;102352.94;;;3.55;75.11
41106;BME280;74159;52.530;13.188;2024-01-27T04:13:47;102359.63;;;3.53;74.72
41106;BME280;74159;52.530;13.188;2024-01-27T04:16:12;102360.00;;;3.50;74.94
41106;BME280;74159;52.530;13.188;2024-01-27T04:18:38;102371.91;;;3.57;74.99
41106;BME280;74159;52.530;13.188;2024-01-27T04:21:04;102367.16;;;3.51;75.00
41106;BME280;74159;52.530;13.188;2024-01-27T04:23:29;102364.72;;;3.56;75.42
41106;BME280;74159;52.530;13.188;2024-01-27T04:25:55;102372.63;;;3.51;75.42
41106;BME280;74159;52.530;13.188;2024-01-27T04:28:20;102373.13;;;3.54;75.02
41106;BME280;74159;52.530;13.188;2024-01-27T04:30:46;102387.84;;;3.53;75.19
41106;BME280;74159;52.530;13.188;2024-01-27T04:33:12;102373.97;;;3.55;75.02
41106;BME280;74159;52.530;13.188;2024-01-27T04:35:37;102387.84;;;3.53;75.57
41106;BME280;74159;52.530;13.188;2024-01-27T04:38:02;102384.25;;;3.53;75.60
41106;BME280;74159;52.530;13.188;2024-01-27T04:40:28;102390.06;;;3.50;75.26
41106;BME280;74159;52.530;13.188;2024-01-27T04:42:54;102396.59;;;3.49;75.52
41106;BME280;74159;52.530;13.188;2024-01-27T04:45:19;102386.59;;;3.56;75.03
41106;BME280;74159;52.530;13.188;2024-01-27T04:47:45;102395.84;;;3.55;75.37
41106;BME280;74159;52.530;13.188;2024-01-27T04:50:10;102408.50;;;3.56;75.30
41106;BME280;74159;52.530;13.188;2024-01-27T04:52:36;102399.97;;;3.51;76.19
41106;BME280;74159;52.530;13.188;2024-01-27T04:55:01;102408.31;;;3.57;75.94
41106;BME280;74159;52.530;13.188;2024-01-27T04:57:28;102416.88;;;3.54;75.98
41106;BME280;74159;52.530;13.188;2024-01-27T04:59:53;102425.84;;;3.63;75.52
41106;BME280;74159;52.530;13.188;2024-01-27T05:02:19;102422.53;;;3.68;74.92
41106;BME280;74159;52.530;13.188;2024-01-27T05:04:44;102417.91;;;3.68;75.33
41106;BME280;74159;52.530;13.188;2024-01-27T05:07:10;102428.00;;;3.68;75.10
41106;BME280;74159;52.530;13.188;2024-01-27T05:09:35;102441.59;;;3.76;75.17
41106;BME280;74159;52.530;13.188;2024-01-27T05:12:01;102449.69;;;3.69;76.24
41106;BME280;74159;52.530;13.188;2024-01-27T05:14:26;102449.69;;;3.84;75.08
41106;BME280;74159;52.530;13.188;2024-01-27T05:16:51;102466.69;;;3.79;75.57
41106;BME280;74159;52.530;13.188;2024-01-27T05:19:17;102447.63;;;3.86;75.22
41106;BME280;74159;52.530;13.188;2024-01-27T05:21:43;102462.84;;;3.88;75.00
41106;BME280;74159;52.530;13.188;2024-01-27T05:24:09;102456.97;;;3.91;74.71
41106;BME280;74159;52.530;13.188;2024-01-27T05:26:34;102467.28;;;3.89;74.64
41106;BME280;74159;52.530;13.188;2024-01-27T05:29:00;102465.00;;;3.93;74.71
41106;BME280;74159;52.530;13.188;2024-01-27T05:31:26;102476.88;;;4.00;74.82
41106;BME280;74159;52.530;13.188;2024-01-27T05:33:51;102470.16;;;4.03;74.57
41106;BME280;74159;52.530;13.188;2024-01-27T05:36:17;102471.91;;;4.04;75.05
41106;BME280;74159;52.530;13.188;2024-01-27T05:38:42;102481.63;;;4.06;74.60
41106;BME280;74159;52.530;13.188;2024-01-27T05:41:08;102480.09;;;4.04;75.03
41106;BME280;74159;52.530;13.188;2024-01-27T05:43:33;102480.75;;;4.06;74.54
41106;BME280;74159;52.530;13.188;2024-01-27T05:45:58;102480.38;;;4.09;74.64
41106;BME280;74159;52.530;13.188;2024-01-27T05:48:24;102475.94;;;4.08;75.40
41106;BME280;74159;52.530;13.188;2024-01-27T05:50:57;102482.84;;;4.04;74.83
41106;BME280;74159;52.530;13.188;2024-01-27T05:53:23;102483.84;;;4.03;75.22
41106;BME280;74159;52.530;13.188;2024-01-27T05:55:48;102480.00;;;4.12;74.80
41106;BME280;74159;52.530;13.188;2024-01-27T05:58:14;102481.31;;;4.16;74.89
41106;BME280;74159;52.530;13.188;2024-01-27T06:00:39;102495.50;;;4.05;75.10
41106;BME280;74159;52.530;13.188;2024-01-27T06:03:04;102491.59;;;4.14;75.22
41106;BME280;74159;52.530;13.188;2024-01-27T06:05:30;102507.66;;;4.17;75.09
41106;BME280;74159;52.530;13.188;2024-01-27T06:07:55;102507.38;;;4.12;74.98
41106;BME280;74159;52.530;13.188;2024-01-27T06:10:20;102503.41;;;4.14;75.29
41106;BME280;74159;52.530;13.188;2024-01-27T06:12:46;102504.44;;;4.13;74.62
41106;BME280;74159;52.530;13.188;2024-01-27T06:15:12;102503.97;;;4.10;75.40
41106;BME280;74159;52.530;13.188;2024-01-27T06:17:37;102512.56;;;4.21;74.83
41106;BME280;74159;52.530;13.188;2024-01-27T06:20:03;102513.41;;;4.22;75.12
41106;BME280;74159;52.530;13.188;2024-01-27T06:22:29;102513.88;;;4.11;75.24
41106;BME280;74159;52.530;13.188;2024-01-27T06:24:56;102527.38;;;4.27;75.17
41106;BME280;74159;52.530;13.188;2024-01-27T06:27:21;102528.22;;;4.28;75.12
41106;BME280;74159;52.530;13.188;2024-01-27T06:29:47;102530.84;;;4.36;75.42
41106;BME280;74159;52.530;13.188;2024-01-27T06:32:12;102527.56;;;4.26;75.19
41106;BME280;74159;52.530;13.188;2024-01-27T06:34:38;102526.53;;;4.27;75.12
41106;BME280;74159;52.530;13.188;2024-01-27T06:37:03;102516.81;;;4.24;74.84
41106;BME280;74159;52.530;13.188;2024-01-27T06:39:30;102514.53;;;4.13;75.52
41106;BME280;74159;52.530;13.188;2024-01-27T06:41:55;102529.28;;;4.12;75.54
41106;BME280;74159;52.530;13.188;2024-01-27T06:44:21;102534.16;;;4.02;75.49
41106;BME280;74159;52.530;13.188;2024-01-27T06:46:46;102520.59;;;4.08;75.78
41106;BME280;74159;52.530;13.188;2024-01-27T06:49:15;102536.72;;;4.18;75.62
41106;BME280;74159;52.530;13.188;2024-01-27T06:51:40;102536.19;;;4.08;75.77
41106;BME280;74159;52.530;13.188;2024-01-27T06:54:06;102549.75;;;4.01;75.84
41106;BME280;74159;52.530;13.188;2024-01-27T06:56:31;102547.88;;;4.16;75.90
41106;BME280;74159;52.530;13.188;2024-01-27T06:58:59;102565.25;;;4.23;75.64
41106;BME280;74159;52.530;13.188;2024-01-27T07:01:24;102556.28;;;4.15;75.70
41106;BME280;74159;52.530;13.188;2024-01-27T07:03:49;102565.16;;;4.17;75.76
41106;BME280;74159;52.530;13.188;2024-01-27T07:06:15;102564.03;;;4.26;75.38
41106;BME280;74159;52.530;13.188;2024-01-27T07:08:40;102569.31;;;4.13;75.64
41106;BME280;74159;52.530;13.188;2024-01-27T07:11:05;102566.19;;;4.31;75.62
41106;BME280;74159;52.530;13.188;2024-01-27T07:13:31;102579.69;;;4.32;75.35
41106;BME280;74159;52.530;13.188;2024-01-27T07:15:56;102582.81;;;4.29;75.81
41106;BME280;74159;52.530;13.188;2024-01-27T07:18:23;102574.13;;;4.26;75.63
41106;BME280;74159;52.530;13.188;2024-01-27T07:20:49;102592.34;;;4.33;75.55
41106;BME280;74159;52.530;13.188;2024-01-27T07:23:14;102593.31;;;4.40;75.32
41106;BME280;74159;52.530;13.188;2024-01-27T07:25:39;102590.97;;;4.37;75.75
41106;BME280;74159;52.530;13.188;2024-01-27T07:28:05;102598.75;;;4.70;75.02
41106;BME280;74159;52.530;13.188;2024-01-27T07:30:30;102600.75;;;4.61;74.53
41106;BME280;74159;52.530;13.188;2024-01-27T07:32:56;102616.22;;;4.69;73.96
41106;BME280;74159;52.530;13.188;2024-01-27T07:35:22;102614.25;;;4.63;73.79
41106;BME280;74159;52.530;13.188;2024-01-27T07:37:47;102623.25;;;4.57;74.41
41106;BME280;74159;52.530;13.188;2024-01-27T07:40:12;102622.03;;;4.44;75.03
41106;BME280;74159;52.530;13.188;2024-01-27T07:42:38;102615.13;;;4.48;75.42
41106;BME280;74159;52.530;13.188;2024-01-27T07:45:03;102635.91;;;4.58;74.58
41106;BME280;74159;52.530;13.188;2024-01-27T07:47:29;102626.00;;;4.57;74.77
41106;BME280;74159;52.530;13.188;2024-01-27T07:49:54;102635.78;;;4.66;74.60
41106;BME280;74159;52.530;13.188;2024-01-27T07:52:20;102643.09;;;4.59;74.73
41106;BME280;74159;52.530;13.188;2024-01-27T07:54:45;102646.09;;;4.64;74.36
41106;BME280;74159;52.530;13.188;2024-01-27T07:57:11;102634.56;;;4.68;74.31
41106;BME280;74159;52.530;13.188;2024-01-27T07:59:37;102639.97;;;4.76;74.47
41106;BME280;74159;52.530;13.188;2024-01-27T08:02:03;102644.41;;;4.77;74.04
41106;BME280;74159;52.530;13.188;2024-01-27T08:04:29;102655.56;;;4.76;74.25
41106;BME280;74159;52.530;13.188;2024-01-27T08:06:54;102653.00;;;4.60;74.98
41106;BME280;74159;52.530;13.188;2024-01-27T08:09:20;102655.44;;;4.69;74.31
41106;BME280;74159;52.530;13.188;2024-01-27T08:11:45;102663.38;;;4.79;74.10
41106;BME280;74159;52.530;13.188;2024-01-27T08:14:11;102652.03;;;4.82;74.21
41106;BME280;74159;52.530;13.188;2024-01-27T08:16:36;102657.13;;;4.85;73.70
41106;BME280;74159;52.530;13.188;2024-01-27T08:19:02;102654.19;;;4.87;73.67
41106;BME280;74159;52.530;13.188;2024-01-27T08:21:27;102651.38;;;4.95;72.99
41106;BME280;74159;52.530;13.188;2024-01-27T08:23:53;102652.59;;;4.92;73.26
41106;BME280;74159;52.530;13.188;2024-01-27T08:26:19;102652.59;;;4.92;73.29
41106;BME280;74159;52.530;13.188;2024-01-27T08:28:46;102654.31;;;4.93;73.40
41106;BME280;74159;52.530;13.188;2024-01-27T08:31:11;102660.31;;;5.03;73.57
41106;BME280;74159;52.530;13.188;2024-01-27T08:33:37;102675.84;;;4.96;73.49
41106;BME280;74159;52.530;13.188;2024-01-27T08:36:02;102680.72;;;5.16;72.39
41106;BME280;74159;52.530;13.188;2024-01-27T08:38:28;102674.72;;;5.05;73.03
41106;BME280;74159;52.530;13.188;2024-01-27T08:40:54;102686.81;;;4.96;73.17
41106;BME280;74159;52.530;13.188;2024-01-27T08:43:19;102692.00;;;5.06;73.20
41106;BME280;74159;52.530;13.188;2024-01-27T08:45:44;102696.25;;;5.08;72.55
41106;BME280;74159;52.530;13.188;2024-01-27T08:48:10;102696.78;;;5.19;72.58
41106;BME280;74159;52.530;13.188;2024-01-27T08:50:36;102699.28;;;5.13;72.87
41106;BME280;74159;52.530;13.188;2024-01-27T08:53:02;102708.16;;;5.16;73.26
41106;BME280;74159;52.530;13.188;2024-01-27T08:55:27;102691.16;;;5.05;72.73
41106;BME280;74159;52.530;13.188;2024-01-27T08:57:53;102710.25;;;5.13;72.65
41106;BME280;74159;52.530;13.188;2024-01-27T09:00:19;102710.63;;;5.25;72.19
41106;BME280;74159;52.530;13.188;2024-01-27T09:02:45;102702.34;;;5.04;73.16
41106;BME280;74159;52.530;13.188;2024-01-27T09:05:10;102699.19;;;5.22;72.83
41106;BME280;74159;52.530;13.188;2024-01-27T09:07:36;102710.56;;;5.04;72.96
41106;BME280;74159;52.530;13.188;2024-01-27T09:10:02;102726.09;;;5.33;72.19
41106;BME280;74159;52.530;13.188;2024-01-27T09:12:27;102711.34;;;5.34;72.41
41106;BME280;74159;52.530;13.188;2024-01-27T09:14:53;102716.19;;;5.17;72.98
41106;BME280;74159;52.530;13.188;2024-01-27T09:17:21;102724.13;;;5.27;72.51
41106;BME280;74159;52.530;13.188;2024-01-27T09:19:46;102718.03;;;5.46;72.08
41106;BME280;74159;52.530;13.188;2024-01-27T09:22:12;102726.22;;;5.25;72.46
41106;BME280;74159;52.530;13.188;2024-01-27T09:24:37;102735.53;;;5.45;71.77
41106;BME280;74159;52.530;13.188;2024-01-27T09:27:03;102730.44;;;5.42;72.37
41106;BME280;74159;52.530;13.188;2024-01-27T09:29:29;102729.84;;;5.47;71.74
41106;BME280;74159;52.530;13.188;2024-01-27T09:31:54;102734.22;;;5.41;71.53
41106;BME280;74159;52.530;13.188;2024-01-27T09:34:20;102730.19;;;5.22;72.14
41106;BME280;74159;52.530;13.188;2024-01-27T09:36:45;102744.19;;;5.63;71.66
41106;BME280;74159;52.530;13.188;2024-01-27T09:39:10;102742.50;;;5.62;71.00
41106;BME280;74159;52.530;13.188;2024-01-27T09:41:36;102744.59;;;5.60;72.26
41106;BME280;74159;52.530;13.188;2024-01-27T09:44:03;102747.97;;;5.62;71.94
41106;BME280;74159;52.530;13.188;2024-01-27T09:46:30;102752.44;;;5.63;71.68
41106;BME280;74159;52.530;13.188;2024-01-27T09:48:56;102750.59;;;5.70;71.66
41106;BME280;74159;52.530;13.188;2024-01-27T09:51:22;102760.41;;;5.58;71.49
41106;BME280;74159;52.530;13.188;2024-01-27T09:53:48;102765.75;;;5.66;71.87
41106;BME280;74159;52.530;13.188;2024-01-27T09:56:16;102757.75;;;5.86;71.03
41106;BME280;74159;52.530;13.188;2024-01-27T09:58:44;102770.09;;;5.76;70.98
41106;BME280;74159;52.530;13.188;2024-01-27T10:01:10;102756.88;;;5.64;71.45
41106;BME280;74159;52.530;13.188;2024-01-27T10:03:38;102757.41;;;5.74;71.53
41106;BME280;74159;52.530;13.188;2024-01-27T10:06:08;102758.97;;;5.62;72.26
41106;BME280;74159;52.530;13.188;2024-01-27T10:08:33;102768.25;;;5.61;71.88
41106;BME280;74159;52.530;13.188;2024-01-27T10:10:59;102770.78;;;5.63;72.19
41106;BME280;74159;52.530;13.188;2024-01-27T10:13:25;102768.50;;;5.66;71.90
41106;BME280;74159;52.530;13.188;2024-01-27T10:16:05;102763.09;;;5.73;72.17
41106;BME280;74159;52.530;13.188;2024-01-27T10:18:31;102773.09;;;5.59;71.44
41106;BME280;74159;52.530;13.188;2024-01-27T10:20:57;102762.75;;;5.61;72.05
41106;BME280;74159;52.530;13.188;2024-01-27T10:23:23;102764.84;;;5.95;70.83
41106;BME280;74159;52.530;13.188;2024-01-27T10:25:50;102770.94;;;5.91;70.90
41106;BME280;74159;52.530;13.188;2024-01-27T10:28:16;102769.72;;;5.79;71.08
41106;BME280;74159;52.530;13.188;2024-01-27T10:30:42;102775.66;;;5.82;71.43
41106;BME280;74159;52.530;13.188;2024-01-27T10:33:08;102774.81;;;5.82;71.29
41106;BME280;74159;52.530;13.188;2024-01-27T10:35:35;102776.00;;;5.72;72.30
41106;BME280;74159;52.530;13.188;2024-01-27T10:38:00;102764.53;;;5.69;72.33
41106;BME280;74159;52.530;13.188;2024-01-27T10:40:26;102780.94;;;5.98;71.77
41106;BME280;74159;52.530;13.188;2024-01-27T10:43:02;102779.50;;;5.88;71.17
41106;BME280;74159;52.530;13.188;2024-01-27T10:45:37;102782.19;;;5.96;70.88
41106;BME280;74159;52.530;13.188;2024-01-27T10:48:04;102778.53;;;6.10;70.36
41106;BME280;74159;52.530;13.188;2024-01-27T10:50:35;102785.91;;;6.10;70.52
41106;BME280;74159;52.530;13.188;2024-01-27T10:53:03;102780.94;;;5.98;70.56
41106;BME280;74159;52.530;13.188;2024-01-27T10:55:31;102796.38;;;5.99;70.84
41106;BME280;74159;52.530;13.188;2024-01-27T10:57:58;102797.41;;;5.98;70.83
41106;BME280;74159;52.530;13.188;2024-01-27T11:00:27;102788.88;;;6.08;71.02
41106;BME280;74159;52.530;13.188;2024-01-27T11:02:55;102791.47;;;5.95;71.74
41106;BME280;74159;52.530;13.188;2024-01-27T11:05:24;102785.31;;;6.14;70.94
41106;BME280;74159;52.530;13.188;2024-01-27T11:07:49;102792.66;;;6.07;71.49
41106;BME280;74159;52.530;13.188;2024-01-27T11:10:17;102788.31;;;6.19;71.14
41106;BME280;74159;52.530;13.188;2024-01-27T11:12:42;102781.66;;;6.28;70.70
41106;BME280;74159;52.530;13.188;2024-01-27T11:15:08;102789.56;;;6.17;70.42
41106;BME280;74159;52.530;13.188;2024-01-27T11:17:40;102803.09;;;6.18;70.39
41106;BME280;74159;52.530;13.188;2024-01-27T11:20:07;102794.91;;;6.03;71.76
41106;BME280;74159;52.530;13.188;2024-01-27T11:22:33;102799.97;;;6.00;71.75
41106;BME280;74159;52.530;13.188;2024-01-27T11:25:15;102791.88;;;5.92;72.00
41106;BME280;74159;52.530;13.188;2024-01-27T11:27:42;102806.13;;;5.87;71.76
41106;BME280;74159;52.530;13.188;2024-01-27T11:30:26;102799.31;;;5.98;71.94
41106;BME280;74159;52.530;13.188;2024-01-27T11:32:55;102807.56;;;5.83;72.29
41106;BME280;74159;52.530;13.188;2024-01-27T11:35:21;102807.56;;;5.83;72.17
41106;BME280;74159;52.530;13.188;2024-01-27T11:37:47;102811.44;;;5.89;71.72
41106;BME280;74159;52.530;13.188;2024-01-27T11:40:13;102810.94;;;6.00;71.68
41106;BME280;74159;52.530;13.188;2024-01-27T11:42:39;102804.31;;;6.09;71.01
41106;BME280;74159;52.530;13.188;2024-01-27T11:45:05;102818.78;;;6.03;71.05
41106;BME280;74159;52.530;13.188;2024-01-27T11:47:30;102811.44;;;6.25;70.62
41106;BME280;74159;52.530;13.188;2024-01-27T11:49:56;102812.75;;;6.08;70.74
41106;BME280;74159;52.530;13.188;2024-01-27T11:52:23;102822.69;;;6.09;70.60
41106;BME280;74159;52.530;13.188;2024-01-27T11:54:59;102819.84;;;6.02;70.48
41106;BME280;74159;52.530;13.188;2024-01-27T11:57:25;102839.66;;;5.97;69.98
41106;BME280;74159;52.530;13.188;2024-01-27T11:59:51;102821.22;;;5.77;70.50
41106;BME280;74159;52.530;13.188;2024-01-27T12:02:17;102820.03;;;5.86;70.32
41106;BME280;74159;52.530;13.188;2024-01-27T12:04:42;102821.69;;;5.95;69.38
41106;BME280;74159;52.530;13.188;2024-01-27T12:07:08;102827.03;;;6.03;70.00
41106;BME280;74159;52.530;13.188;2024-01-27T12:09:36;102836.38;;;6.23;68.60
41106;BME280;74159;52.530;13.188;2024-01-27T12:12:01;102845.38;;;6.60;67.34
41106;BME280;74159;52.530;13.188;2024-01-27T12:14:47;102842.41;;;7.93;62.61
41106;BME280;74159;52.530;13.188;2024-01-27T12:17:13;102857.94;;;6.97;64.67
41106;BME280;74159;52.530;13.188;2024-01-27T12:19:38;102868.66;;;6.64;65.91
41106;BME280;74159;52.530;13.188;2024-01-27T12:22:05;102866.00;;;6.49;66.62
41106;BME280;74159;52.530;13.188;2024-01-27T12:24:45;102873.63;;;6.11;68.97
41106;BME280;74159;52.530;13.188;2024-01-27T12:27:11;102880.03;;;6.18;68.78
41106;BME280;74159;52.530;13.188;2024-01-27T12:29:36;102873.22;;;6.14;69.07
41106;BME280;74159;52.530;13.188;2024-01-27T12:32:01;102875.03;;;6.22;68.77
41106;BME280;74159;52.530;13.188;2024-01-27T12:34:27;102879.34;;;6.31;68.44
41106;BME280;74159;52.530;13.188;2024-01-27T12:36:52;102875.47;;;6.47;67.98
41106;BME280;74159;52.530;13.188;2024-01-27T12:39:17;102869.28;;;6.59;67.88
41106;BME280;74159;52.530;13.188;2024-01-27T12:41:43;102864.06;;;6.71;68.17
41106;BME280;74159;52.530;13.188;2024-01-27T12:44:09;102863.84;;;6.23;68.84